Time;durP1;ratioP1;P1;durP2;ratioP2;P2;SDS_P1;SDS_P2;PMS_P1;PMS_P2;Temp;Humidity;BMP_temperature;BMP_pressure;BME280_temperature;BME280_humidity;BME280_pressure;Samples;Min_cycle;Max_cycle;Signal;HPM_P1;HPM_P2
2022/09/11 00:01:14;;;;;;;4.88;3.88;;;;;;;16.08;85.99;100569.59;5055719;28;20059;-63
2022/09/11 00:03:42;;;;;;;6.72;4.00;;;;;;;16.03;84.17;100576.22;5054164;28;20064;-63
2022/09/11 00:06:11;;;;;;;6.05;3.63;;;;;;;16.09;83.62;100573.09;5059075;28;21328;-62
2022/09/11 00:08:40;;;;;;;5.05;3.50;;;;;;;16.11;82.84;100574.63;5062726;28;20064;-63
2022/09/11 00:11:10;;;;;;;10.30;3.78;;;;;;;16.11;82.04;100576.44;5059880;28;20345;-62
2022/09/11 00:13:38;;;;;;;7.10;3.40;;;;;;;16.10;81.68;100572.94;5055460;28;20049;-63
2022/09/11 00:16:16;;;;;;;7.90;3.60;;;;;;;16.12;80.85;100580.78;5063015;28;20048;-64
2022/09/11 00:18:45;;;;;;;6.45;3.65;;;;;;;16.09;81.68;100578.41;5028723;28;20052;-60
2022/09/11 00:21:12;;;;;;;13.65;4.65;;;;;;;16.01;86.97;100576.38;5063847;28;20079;-59
2022/09/11 00:23:39;;;;;;;7.15;4.18;;;;;;;15.90;84.88;100585.22;5065139;28;20045;-61
2022/09/11 00:26:08;;;;;;;7.63;4.50;;;;;;;15.91;84.18;100584.25;5064340;28;20527;-64
2022/09/11 00:28:38;;;;;;;6.78;4.07;;;;;;;15.92;85.17;100587.75;5059813;28;20148;-62
2022/09/11 00:31:08;;;;;;;8.48;4.40;;;;;;;15.93;84.09;100576.16;5065242;28;20036;-62
2022/09/11 00:33:36;;;;;;;10.57;4.38;;;;;;;15.97;84.90;100576.75;5062494;28;21132;-63
2022/09/11 00:36:06;;;;;;;8.60;5.32;;;;;;;15.87;86.43;100582.81;5061252;28;20057;-63
2022/09/11 00:38:36;;;;;;;8.43;5.38;;;;;;;15.78;88.10;100572.09;5061999;28;20072;-63
2022/09/11 00:41:07;;;;;;;7.13;4.95;;;;;;;15.75;89.09;100570.53;5068492;28;20052;-61
2022/09/11 00:43:58;;;;;;;8.05;5.40;;;;;;;15.67;89.10;100573.00;5051882;28;20408;-64
2022/09/11 00:46:40;;;;;;;9.27;5.75;;;;;;;15.62;92.69;100577.78;5063413;28;20059;-64
2022/09/11 00:49:46;;;;;;;9.38;5.03;;;;;;;15.61;89.43;100581.41;5045119;28;20036;-63
2022/09/11 00:52:16;;;;;;;;;;;;;;;15.62;93.59;100578.59;5005868;28;20381;-63
2022/09/11 00:54:48;;;;;;;9.48;6.10;;;;;;;15.56;93.85;100575.63;4994293;28;19925;-64
2022/09/11 00:57:17;;;;;;;9.45;6.00;;;;;;;15.48;96.19;100572.72;5006775;28;20552;-62
2022/09/11 00:59:46;;;;;;;7.78;5.72;;;;;;;15.43;94.89;100576.59;5034964;28;20135;-63
2022/09/11 01:02:16;;;;;;;7.28;4.95;;;;;;;15.50;91.73;100578.78;5056947;28;20655;-62
2022/09/11 01:04:43;;;;;;;9.13;5.65;;;;;;;15.56;94.70;100578.28;5046382;28;20056;-63
2022/09/11 01:07:11;;;;;;;8.45;5.68;;;;;;;15.57;91.99;100578.13;5060139;28;20100;-62
2022/09/11 01:09:39;;;;;;;12.68;5.75;;;;;;;15.57;91.68;100580.78;5048310;28;20108;-63
2022/09/11 01:12:08;;;;;;;8.40;6.00;;;;;;;15.61;96.80;100576.09;5062180;28;20052;-63
2022/09/11 01:14:51;;;;;;;6.05;5.20;;;;;;;15.48;94.94;100580.69;5067385;28;20665;-63
2022/09/11 01:17:43;;;;;;;9.15;5.65;;;;;;;15.47;95.52;100577.19;5062170;28;20052;-62
2022/09/11 01:20:29;;;;;;;9.02;5.82;;;;;;;15.49;93.30;100587.69;5062467;28;20048;-63
2022/09/11 01:23:20;;;;;;;8.95;5.78;;;;;;;15.49;95.47;100588.56;5064024;28;20056;-62
2022/09/11 01:26:25;;;;;;;9.68;5.05;;;;;;;15.48;92.16;100586.84;5058374;28;20534;-63
2022/09/11 01:29:02;;;;;;;7.50;4.93;;;;;;;15.53;90.79;100589.97;5065141;28;20501;-63
2022/09/11 01:31:45;;;;;;;7.05;5.00;;;;;;;15.52;92.11;100590.09;5042702;28;20052;-63
2022/09/11 01:34:22;;;;;;;9.13;5.63;;;;;;;15.47;94.86;100584.31;5045399;28;20128;-60
2022/09/11 01:36:53;;;;;;;8.02;5.22;;;;;;;15.38;95.72;100594.69;5040347;28;20056;-62
2022/09/11 01:39:21;;;;;;;8.40;5.72;;;;;;;15.43;93.18;100587.22;5048058;28;20049;-63
2022/09/11 01:41:59;;;;;;;5.97;4.45;;;;;;;15.47;92.29;100598.44;5030306;28;20045;-63
2022/09/11 01:44:34;;;;;;;7.03;5.18;;;;;;;15.47;93.67;100590.47;5062615;28;20136;-62
2022/09/11 01:47:03;;;;;;;6.75;5.05;;;;;;;15.39;97.43;100592.88;5049095;28;20055;-62
2022/09/11 01:49:37;;;;;;;7.47;5.07;;;;;;;15.35;97.77;100594.09;5040377;28;20067;-64
2022/09/11 01:52:08;;;;;;;11.27;5.85;;;;;;;15.26;99.32;100592.16;5041848;28;20060;-63
2022/09/11 01:54:41;;;;;;;7.43;5.25;;;;;;;15.22;97.06;100596.03;5042432;28;20040;-64
2022/09/11 01:57:15;;;;;;;11.35;4.90;;;;;;;15.19;95.06;100595.31;5046215;28;20055;-63
2022/09/11 01:59:47;;;;;;;6.82;5.03;;;;;;;15.32;94.07;100591.69;5059117;28;20071;-61
2022/09/11 02:02:18;;;;;;;9.55;5.20;;;;;;;15.27;96.79;100597.38;5032697;28;20114;-64
2022/09/11 02:04:49;;;;;;;5.93;4.80;;;;;;;15.15;99.55;100595.66;5051181;28;20057;-62
2022/09/11 02:07:24;;;;;;;6.38;4.90;;;;;;;15.12;95.52;100591.44;5063125;28;20489;-62
2022/09/11 02:09:58;;;;;;;8.77;5.53;;;;;;;15.21;94.61;100595.19;5059217;28;20684;-62
2022/09/11 02:12:30;;;;;;;11.40;5.35;;;;;;;15.17;95.15;100591.06;5051069;28;20075;-63
2022/09/11 02:14:58;;;;;;;9.15;5.18;;;;;;;15.11;93.90;100584.47;5057606;28;20057;-62
2022/09/11 02:17:54;;;;;;;9.88;5.43;;;;;;;15.11;95.23;100588.91;5045832;28;20052;-62
2022/09/11 02:20:21;;;;;;;11.38;6.03;;;;;;;15.10;97.40;100588.06;5045519;28;20073;-63
2022/09/11 02:22:48;;;;;;;9.30;5.55;;;;;;;14.99;97.98;100585.41;5062402;28;20041;-64
2022/09/11 02:25:15;;;;;;;7.72;5.43;;;;;;;14.89;97.48;100582.63;5037665;28;20048;-63
2022/09/11 02:27:42;;;;;;;10.13;5.93;;;;;;;14.93;95.95;100583.25;5058248;28;20056;-65
2022/09/11 02:30:10;;;;;;;6.32;4.80;;;;;;;14.92;96.60;100587.72;5062003;28;20524;-63
2022/09/11 02:32:40;;;;;;;7.05;4.68;;;;;;;14.97;93.28;100599.75;5066491;28;20052;-63
2022/09/11 02:35:07;;;;;;;7.15;4.80;;;;;;;15.05;91.98;100602.66;5045348;28;20045;-62
2022/09/11 02:37:58;;;;;;;5.63;4.75;;;;;;;15.06;91.45;100593.75;5039575;28;20044;-62
2022/09/11 02:41:02;;;;;;;6.90;4.50;;;;;;;15.00;92.79;100596.88;5066633;28;20044;-61
2022/09/11 02:43:48;;;;;;;10.82;5.32;;;;;;;14.94;95.85;100599.03;5042339;28;20060;-62
2022/09/11 02:46:42;;;;;;;7.15;5.45;;;;;;;14.86;96.09;100605.88;5057849;28;20074;-62
2022/09/11 02:49:29;;;;;;;9.27;5.22;;;;;;;14.83;98.52;100606.97;5066102;28;20056;-62
2022/09/11 02:52:02;;;;;;;10.52;5.20;;;;;;;14.77;96.04;100610.09;5063638;28;20055;-60
2022/09/11 02:54:44;;;;;;;6.65;5.15;;;;;;;14.87;93.37;100618.19;5042639;28;20056;-63
2022/09/11 02:57:18;;;;;;;8.38;5.72;;;;;;;14.94;94.91;100624.69;5050316;28;20070;-63
2022/09/11 03:00:00;;;;;;;8.65;7.45;;;;;;;14.93;95.20;100623.00;5039045;28;20044;-63
2022/09/11 03:02:29;;;;;;;6.90;6.15;;;;;;;14.94;92.82;100616.72;5044047;28;20039;-63
2022/09/11 03:04:56;;;;;;;10.77;8.35;;;;;;;15.01;93.30;100625.06;5059258;28;20676;-62
2022/09/11 03:07:24;;;;;;;13.50;8.85;;;;;;;14.98;95.28;100620.84;5049441;28;20570;-62
2022/09/11 03:09:51;;;;;;;10.45;7.88;;;;;;;14.86;94.83;100621.78;5032613;28;20049;-63
2022/09/11 03:12:19;;;;;;;9.65;8.27;;;;;;;14.88;94.30;100619.88;5037002;28;20406;-62
2022/09/11 03:14:47;;;;;;;9.35;7.32;;;;;;;14.85;93.47;100618.28;5062954;28;20144;-63
2022/09/11 03:17:15;;;;;;;10.18;7.60;;;;;;;14.86;95.32;100624.44;5061828;28;20056;-62
2022/09/11 03:19:42;;;;;;;12.70;8.55;;;;;;;14.89;92.94;100619.75;5052029;28;20048;-62
2022/09/11 03:22:10;;;;;;;11.45;8.73;;;;;;;14.95;96.17;100629.06;5064598;28;20051;-61
2022/09/11 03:24:38;;;;;;;10.30;8.68;;;;;;;14.79;97.74;100618.78;5062271;28;20040;-61
2022/09/11 03:27:05;;;;;;;12.68;7.70;;;;;;;14.77;95.62;100633.97;5052178;28;20049;-63
2022/09/11 03:29:32;;;;;;;14.25;8.23;;;;;;;14.76;96.63;100631.41;5048414;28;20052;-62
2022/09/11 03:32:00;;;;;;;12.50;8.43;;;;;;;14.68;98.85;100638.16;5060108;28;20327;-63
2022/09/11 03:34:27;;;;;;;11.38;8.50;;;;;;;14.63;97.73;100640.31;5048429;28;20140;-62
2022/09/11 03:36:54;;;;;;;12.10;8.68;;;;;;;14.62;97.60;100651.84;5066020;28;20044;-62
2022/09/11 03:39:21;;;;;;;10.68;8.32;;;;;;;14.64;100.00;100649.94;5062786;28;20061;-62
2022/09/11 03:41:50;;;;;;;9.52;7.53;;;;;;;14.56;98.63;100657.59;5063947;28;20048;-62
2022/09/11 03:44:17;;;;;;;10.13;8.63;;;;;;;14.64;97.46;100662.34;5044270;28;20052;-63
2022/09/11 03:46:44;;;;;;;12.00;7.63;;;;;;;14.67;96.08;100662.09;5061451;28;20211;-62
2022/09/11 03:49:11;;;;;;;13.02;8.48;;;;;;;14.74;96.15;100665.97;5062955;28;20048;-60
2022/09/11 03:51:38;;;;;;;10.60;7.85;;;;;;;14.77;94.55;100671.06;5065358;28;20622;-62
2022/09/11 03:54:06;;;;;;;13.38;8.63;;;;;;;14.75;96.09;100672.13;5060453;28;20033;-62
2022/09/11 03:56:33;;;;;;;12.32;8.93;;;;;;;14.71;99.04;100674.16;5045809;28;20048;-63
2022/09/11 03:59:00;;;;;;;11.85;9.38;;;;;;;14.58;98.35;100682.16;5049377;28;20468;-61
2022/09/11 04:01:28;;;;;;;12.35;9.30;;;;;;;14.58;97.45;100687.47;5058260;28;20056;-62
2022/09/11 04:03:55;;;;;;;14.60;11.13;;;;;;;14.48;100.00;100688.25;5058279;28;20048;-62
2022/09/11 04:06:23;;;;;;;11.80;9.90;;;;;;;14.37;100.00;100684.59;5045296;28;20045;-63
2022/09/11 04:08:50;;;;;;;13.30;9.50;;;;;;;14.26;100.00;100687.16;5059392;28;20052;-62
2022/09/11 04:11:17;;;;;;;14.68;10.07;;;;;;;14.30;98.93;100686.00;5062543;28;20063;-63
2022/09/11 04:13:44;;;;;;;10.27;9.15;;;;;;;14.40;97.57;100696.75;5060458;28;20049;-62
2022/09/11 04:16:13;;;;;;;12.25;9.90;;;;;;;14.36;100.00;100685.56;5043776;28;20056;-64
2022/09/11 04:18:42;;;;;;;12.25;10.38;;;;;;;14.29;98.64;100692.25;5057361;28;20412;-65
2022/09/11 04:21:11;;;;;;;12.27;9.73;;;;;;;14.29;100.00;100689.59;5048323;28;20040;-64
2022/09/11 04:23:38;;;;;;;15.38;10.57;;;;;;;14.20;100.00;100692.94;5064691;28;20048;-63
2022/09/11 04:26:14;;;;;;;14.57;10.85;;;;;;;14.12;100.00;100690.81;5063765;28;20078;-64
2022/09/11 04:28:42;;;;;;;11.90;9.27;;;;;;;14.05;100.00;100688.72;5056426;28;20129;-61
2022/09/11 04:31:10;;;;;;;15.82;10.77;;;;;;;14.13;100.00;100687.22;5043582;28;20052;-60
2022/09/11 04:33:38;;;;;;;14.55;10.73;;;;;;;14.09;100.00;100691.03;5057671;28;20067;-64
2022/09/11 04:36:07;;;;;;;15.35;10.75;;;;;;;14.07;100.00;100687.69;5065938;28;20261;-62
2022/09/11 04:38:35;;;;;;;15.98;11.60;;;;;;;14.07;100.00;100697.41;5053034;28;20071;-63
2022/09/11 04:41:05;;;;;;;16.60;12.13;;;;;;;14.04;100.00;100695.81;5064967;28;20067;-62
2022/09/11 04:43:33;;;;;;;17.45;11.43;;;;;;;13.98;100.00;100696.28;5057413;28;20041;-63
2022/09/11 04:46:10;;;;;;;16.02;11.55;;;;;;;14.09;100.00;100696.34;5042830;28;20049;-62
2022/09/11 04:48:45;;;;;;;18.15;12.07;;;;;;;14.14;100.00;100688.94;5062753;28;20045;-62
2022/09/11 04:51:20;;;;;;;17.65;11.50;;;;;;;14.25;100.00;100697.88;5063451;28;20051;-63
2022/09/11 04:53:48;;;;;;;;;;;;;;;14.30;100.00;100699.22;5065604;28;20570;-62
2022/09/11 04:56:15;;;;;;;22.35;13.65;;;;;;;14.28;100.00;100695.88;5060115;28;19921;-59
2022/09/11 04:58:42;;;;;;;20.52;13.80;;;;;;;14.25;100.00;100703.19;5059859;28;20061;-63
2022/09/11 05:01:12;;;;;;;21.15;13.75;;;;;;;14.32;100.00;100702.63;5057112;28;20048;-63
2022/09/11 05:03:41;;;;;;;19.50;13.13;;;;;;;14.33;100.00;100701.66;5059690;28;20049;-62
2022/09/11 05:06:10;;;;;;;19.48;13.27;;;;;;;14.26;100.00;100703.06;5060987;28;20057;-62
2022/09/11 05:08:37;;;;;;;17.30;12.70;;;;;;;14.31;100.00;100708.03;5039435;28;20056;-62
2022/09/11 05:11:05;;;;;;;19.77;13.40;;;;;;;14.31;100.00;100702.72;5063329;28;20052;-61
2022/09/11 05:13:32;;;;;;;20.42;13.10;;;;;;;14.22;100.00;100700.75;5064970;28;20047;-62
2022/09/11 05:16:03;;;;;;;18.88;12.90;;;;;;;14.18;100.00;100698.34;5068424;28;20068;-60
2022/09/11 05:18:31;;;;;;;19.42;12.93;;;;;;;14.24;100.00;100712.94;5057296;28;20135;-63
2022/09/11 05:21:05;;;;;;;19.10;12.35;;;;;;;14.34;100.00;100703.34;5057496;28;20056;-62
2022/09/11 05:23:33;;;;;;;20.10;13.32;;;;;;;14.43;100.00;100713.28;5064003;28;20056;-63
2022/09/11 05:26:02;;;;;;;22.70;13.57;;;;;;;14.48;100.00;100718.25;5060079;28;20051;-62
2022/09/11 05:28:29;;;;;;;23.45;14.05;;;;;;;14.49;100.00;100716.44;5065989;28;20052;-63
2022/09/11 05:30:57;;;;;;;23.77;15.40;;;;;;;14.49;100.00;100717.28;5068300;28;20045;-64
2022/09/11 05:33:26;;;;;;;21.15;13.65;;;;;;;14.45;100.00;100723.75;5064985;28;20155;-61
2022/09/11 05:35:54;;;;;;;23.55;15.60;;;;;;;14.47;100.00;100716.53;5057108;28;20045;-62
2022/09/11 05:38:21;;;;;;;26.52;17.55;;;;;;;14.43;100.00;100721.22;5060540;28;20753;-62
2022/09/11 05:40:50;;;;;;;26.63;16.85;;;;;;;14.42;100.00;100724.81;5059595;28;20064;-63
2022/09/11 05:43:18;;;;;;;23.48;15.65;;;;;;;14.43;100.00;100731.81;5064402;28;20068;-63
2022/09/11 05:45:53;;;;;;;24.77;15.60;;;;;;;14.51;100.00;100739.22;5054207;28;20377;-63
2022/09/11 05:48:20;;;;;;;22.63;15.05;;;;;;;14.54;100.00;100746.09;5062525;28;20059;-64
2022/09/11 05:50:55;;;;;;;21.67;15.07;;;;;;;14.58;100.00;100756.34;5051984;28;20415;-60
2022/09/11 05:53:23;;;;;;;21.10;15.35;;;;;;;14.65;100.00;100767.34;5049823;28;20050;-64
2022/09/11 05:55:50;;;;;;;21.25;15.68;;;;;;;14.69;100.00;100768.81;5086488;22;20419;-62
2022/09/11 05:58:17;;;;;;;26.13;17.85;;;;;;;14.67;100.00;100776.88;5073071;28;20055;-63
2022/09/11 06:00:45;;;;;;;25.38;17.42;;;;;;;14.67;100.00;100782.16;5069057;28;20053;-63
2022/09/11 06:03:17;;;;;;;23.58;16.98;;;;;;;14.66;100.00;100775.19;5074071;28;20044;-64
2022/09/11 06:05:44;;;;;;;25.95;15.93;;;;;;;14.71;100.00;100782.78;5070327;28;20426;-64
2022/09/11 06:08:12;;;;;;;26.63;16.92;;;;;;;14.79;100.00;100783.09;5067432;28;20060;-64
2022/09/11 06:10:45;;;;;;;27.35;17.48;;;;;;;14.86;100.00;100791.41;5069193;28;20051;-64
2022/09/11 06:13:16;;;;;;;26.05;17.90;;;;;;;14.82;100.00;100782.88;5068087;28;20048;-64
2022/09/11 06:15:44;;;;;;;24.75;15.55;;;;;;;14.82;100.00;100784.66;5047704;28;20504;-64
2022/09/11 06:18:16;;;;;;;28.58;18.45;;;;;;;14.88;100.00;100784.22;5064963;28;20135;-64
2022/09/11 06:20:59;;;;;;;26.73;17.15;;;;;;;14.97;100.00;100791.47;5051303;28;20577;-64
2022/09/11 06:23:27;;;;;;;25.38;16.55;;;;;;;15.03;100.00;100796.31;5069014;28;20120;-64
2022/09/11 06:26:02;;;;;;;29.38;18.38;;;;;;;15.04;100.00;100791.84;5070148;28;20051;-63
2022/09/11 06:28:29;;;;;;;24.23;17.20;;;;;;;15.02;100.00;100799.91;5068746;28;20542;-63
2022/09/11 06:30:57;;;;;;;30.13;19.42;;;;;;;15.06;100.00;100797.91;5069386;28;20057;-64
2022/09/11 06:33:24;;;;;;;28.70;18.65;;;;;;;15.05;100.00;100798.84;5070070;28;20078;-65
2022/09/11 06:35:58;;;;;;;29.52;19.10;;;;;;;15.06;100.00;100805.84;5064481;28;20055;-64
2022/09/11 06:38:26;;;;;;;24.95;17.67;;;;;;;15.07;100.00;100811.03;5068794;28;20059;-64
2022/09/11 06:40:53;;;;;;;27.23;18.25;;;;;;;15.12;100.00;100819.47;5070948;28;20083;-64
2022/09/11 06:43:20;;;;;;;26.38;17.35;;;;;;;15.18;100.00;100815.53;5067590;28;20148;-64
2022/09/11 06:45:47;;;;;;;21.73;15.27;;;;;;;15.30;100.00;100822.56;5063961;28;20155;-64
2022/09/11 06:48:15;;;;;;;22.33;15.32;;;;;;;15.34;100.00;100818.72;5068221;28;20522;-64
2022/09/11 06:50:43;;;;;;;23.63;15.57;;;;;;;15.39;100.00;100824.50;5071628;28;20048;-64
2022/09/11 06:53:11;;;;;;;23.40;14.82;;;;;;;15.39;100.00;100816.56;5068559;28;20044;-64
2022/09/11 06:55:39;;;;;;;26.73;16.30;;;;;;;15.44;100.00;100819.72;5052996;28;20217;-64
2022/09/11 06:58:06;;;;;;;21.63;14.13;;;;;;;15.45;100.00;100816.09;5057023;28;20048;-66
2022/09/11 07:00:33;;;;;;;24.00;15.95;;;;;;;15.50;100.00;100821.06;5070112;28;20028;-63
2022/09/11 07:03:01;;;;;;;18.85;14.07;;;;;;;15.51;100.00;100819.25;5068326;28;20051;-64
2022/09/11 07:05:28;;;;;;;21.75;16.35;;;;;;;15.56;100.00;100823.22;5066176;28;20052;-64
2022/09/11 07:07:56;;;;;;;19.10;13.13;;;;;;;15.57;100.00;100811.66;5061451;28;20122;-64
2022/09/11 07:10:23;;;;;;;20.52;14.32;;;;;;;15.61;100.00;100821.06;5069356;28;20384;-63
2022/09/11 07:12:54;;;;;;;20.38;13.18;;;;;;;15.62;100.00;100825.41;5053552;28;20473;-64
2022/09/11 07:15:21;;;;;;;22.05;13.77;;;;;;;15.68;100.00;100821.50;5071001;28;20075;-63
2022/09/11 07:17:48;;;;;;;23.02;15.13;;;;;;;15.70;100.00;100823.03;5064279;28;20044;-61
2022/09/11 07:20:16;;;;;;;16.40;12.38;;;;;;;15.67;100.00;100819.81;5063406;28;20048;-64
2022/09/11 07:22:44;;;;;;;20.73;12.73;;;;;;;15.73;100.00;100823.78;5061539;28;21101;-62
2022/09/11 07:25:12;;;;;;;20.25;14.98;;;;;;;15.76;100.00;100823.53;5058834;28;20397;-64
2022/09/11 07:27:40;;;;;;;19.58;13.68;;;;;;;15.81;100.00;100821.38;5060604;28;20061;-66
2022/09/11 07:30:07;;;;;;;19.85;14.25;;;;;;;15.82;100.00;100820.41;5065681;28;20048;-63
2022/09/11 07:32:36;;;;;;;23.65;14.75;;;;;;;15.83;100.00;100819.44;5048861;28;20052;-62
2022/09/11 07:35:03;;;;;;;18.50;14.00;;;;;;;15.87;100.00;100820.91;5062512;28;20128;-62
2022/09/11 07:37:30;;;;;;;20.38;13.40;;;;;;;15.91;100.00;100825.00;5053313;28;20610;-63
2022/09/11 07:39:58;;;;;;;20.05;12.15;;;;;;;16.00;100.00;100816.31;5060338;28;20052;-63
2022/09/11 07:42:27;;;;;;;18.80;13.40;;;;;;;16.16;100.00;100815.94;5062410;28;20067;-63
2022/09/11 07:44:55;;;;;;;19.45;13.02;;;;;;;16.27;99.49;100815.09;5052811;28;20044;-63
2022/09/11 07:47:22;;;;;;;18.35;13.13;;;;;;;16.36;100.00;100815.22;5061462;28;20139;-63
2022/09/11 07:49:49;;;;;;;21.25;13.73;;;;;;;16.36;99.38;100823.19;5064166;28;20063;-64
2022/09/11 07:52:19;;;;;;;18.13;13.10;;;;;;;16.45;98.53;100821.59;5066084;28;20048;-64
2022/09/11 07:54:46;;;;;;;19.90;13.55;;;;;;;16.47;98.08;100830.28;5063324;28;20048;-64
2022/09/11 07:57:13;;;;;;;22.77;13.98;;;;;;;16.46;98.06;100828.59;5064345;28;20424;-64
2022/09/11 07:59:40;;;;;;;19.95;13.63;;;;;;;16.48;98.94;100832.00;5064586;28;20048;-63
2022/09/11 08:02:10;;;;;;;18.08;13.20;;;;;;;16.52;99.00;100833.41;5044647;28;20056;-65
2022/09/11 08:04:37;;;;;;;15.52;11.82;;;;;;;16.61;98.44;100837.97;5055519;28;20040;-65
2022/09/11 08:07:05;;;;;;;14.35;10.40;;;;;;;16.71;97.65;100828.31;5063753;28;20048;-68
2022/09/11 08:09:32;;;;;;;17.55;11.13;;;;;;;16.85;97.01;100837.84;5057334;28;20063;-63
2022/09/11 08:12:00;;;;;;;15.77;11.00;;;;;;;16.92;96.48;100838.19;5046108;28;20056;-64
2022/09/11 08:14:28;;;;;;;16.40;11.88;;;;;;;17.04;94.88;100828.34;5056999;28;20045;-63
2022/09/11 08:16:55;;;;;;;17.33;12.30;;;;;;;17.01;95.17;100834.75;5062655;28;20507;-63
2022/09/11 08:19:23;;;;;;;17.38;11.80;;;;;;;17.10;93.82;100843.78;5057127;28;20123;-64
2022/09/11 08:21:50;;;;;;;13.82;10.60;;;;;;;17.13;94.61;100852.38;5047527;28;20766;-62
2022/09/11 08:24:21;;;;;;;20.40;12.18;;;;;;;17.08;94.65;100854.56;5055551;28;20060;-64
2022/09/11 08:26:49;;;;;;;20.30;12.77;;;;;;;17.10;94.73;100851.78;5039152;28;20052;-64
2022/09/11 08:29:17;;;;;;;16.10;10.88;;;;;;;17.11;93.87;100859.66;5055271;28;20904;-64
2022/09/11 08:31:44;;;;;;;15.60;10.45;;;;;;;17.19;93.44;100864.31;5050721;28;20504;-65
2022/09/11 08:34:11;;;;;;;19.23;12.10;;;;;;;17.21;94.12;100865.06;5051790;28;20052;-61
2022/09/11 08:36:38;;;;;;;18.52;11.23;;;;;;;17.17;94.13;100874.25;5052441;28;20052;-65
2022/09/11 08:39:05;;;;;;;14.65;11.43;;;;;;;17.13;93.83;100868.34;5052526;28;20084;-62
2022/09/11 08:41:40;;;;;;;14.57;9.98;;;;;;;17.14;94.33;100869.19;5075002;28;20056;-62
2022/09/11 08:44:41;;;;;;;13.60;10.82;;;;;;;17.24;93.61;100879.91;5052881;28;20036;-64
2022/09/11 08:47:14;;;;;;;15.10;10.32;;;;;;;17.28;92.99;100876.84;5051107;28;20059;-64
2022/09/11 08:49:43;;;;;;;12.63;10.07;;;;;;;17.25;92.94;100877.13;5052716;28;20045;-64
2022/09/11 08:52:13;;;;;;;16.35;11.02;;;;;;;17.28;92.97;100879.50;5056420;28;20053;-64
2022/09/11 08:54:41;;;;;;;16.38;10.82;;;;;;;17.28;92.82;100873.34;5056385;28;20052;-64
2022/09/11 08:57:17;;;;;;;15.65;10.77;;;;;;;17.28;92.88;100879.50;5042039;28;20064;-63
2022/09/11 08:59:53;;;;;;;;;;;;;;;17.30;93.22;100877.59;5068895;28;20059;-63
2022/09/11 09:02:49;;;;;;;10.43;8.90;;;;;;;17.38;92.40;100879.59;5068561;28;19938;-64
2022/09/11 09:05:26;;;;;;;;;;;;;;;17.40;92.56;100880.31;5050471;28;20117;-64
2022/09/11 09:08:26;;;;;;;13.30;9.85;;;;;;;17.42;92.17;100881.88;5078057;28;19921;-62
2022/09/11 09:11:05;;;;;;;18.10;9.32;;;;;;;17.53;91.55;100880.16;5070206;28;20052;-63
2022/09/11 09:13:35;;;;;;;15.88;10.57;;;;;;;17.52;90.95;100881.13;5079283;28;20042;-63
2022/09/11 09:16:13;;;;;;;13.18;9.25;;;;;;;17.52;91.00;100883.78;5069661;28;20131;-64
2022/09/11 09:18:43;;;;;;;14.48;9.38;;;;;;;17.55;90.88;100883.50;5065238;28;20121;-62
2022/09/11 09:21:20;;;;;;;13.40;9.07;;;;;;;17.65;91.13;100889.75;5050204;28;20140;-63
2022/09/11 09:23:54;;;;;;;11.98;9.13;;;;;;;17.77;89.85;100887.91;5046876;28;20051;-64
2022/09/11 09:26:28;;;;;;;13.50;8.68;;;;;;;17.84;89.84;100894.41;5061476;28;20736;-63
2022/09/11 09:28:58;;;;;;;11.25;8.15;;;;;;;17.99;89.13;100898.41;5031204;28;20083;-65
2022/09/11 09:31:29;;;;;;;17.48;9.23;;;;;;;18.04;89.20;100896.19;5066148;28;20674;-64
2022/09/11 09:34:14;;;;;;;12.60;7.85;;;;;;;18.13;89.20;100898.06;5051710;28;20048;-63
2022/09/11 09:37:03;;;;;;;13.63;8.88;;;;;;;18.18;88.14;100898.50;5062665;28;20055;-63
2022/09/11 09:39:30;;;;;;;8.57;6.88;;;;;;;18.17;87.68;100898.66;5050109;28;20075;-64
2022/09/11 09:42:25;;;;;;;11.32;7.72;;;;;;;18.12;87.20;100901.72;5067432;28;20052;-63
2022/09/11 09:45:26;;;;;;;13.43;8.02;;;;;;;18.06;87.53;100899.59;5061822;28;20684;-63
2022/09/11 09:47:53;;;;;;;10.52;7.75;;;;;;;18.08;87.33;100904.78;5063623;28;20052;-63
2022/09/11 09:50:27;;;;;;;10.75;8.05;;;;;;;18.04;87.14;100904.19;5060797;28;20060;-65
2022/09/11 09:53:03;;;;;;;12.25;8.27;;;;;;;18.08;86.92;100905.63;5053964;28;20550;-62
2022/09/11 09:55:30;;;;;;;11.30;8.60;;;;;;;18.09;87.11;100904.63;5047502;28;20068;-63
2022/09/11 09:57:57;;;;;;;11.98;9.15;;;;;;;18.06;86.45;100896.09;5039511;28;20473;-64
2022/09/11 10:00:24;;;;;;;11.05;8.32;;;;;;;18.17;86.87;100907.47;5064716;28;20056;-63
2022/09/11 10:02:55;;;;;;;12.20;8.63;;;;;;;18.31;86.19;100900.13;5066233;28;20546;-61
2022/09/11 10:05:33;;;;;;;12.07;8.60;;;;;;;18.43;86.01;100897.22;5054905;28;20056;-62
2022/09/11 10:08:03;;;;;;;14.63;8.73;;;;;;;18.48;85.77;100905.66;5062587;28;20067;-63
2022/09/11 10:10:39;;;;;;;13.23;8.32;;;;;;;18.44;84.30;100911.41;5041031;28;20070;-61
2022/09/11 10:13:21;;;;;;;15.45;9.32;;;;;;;18.36;84.58;100908.53;5051013;28;20059;-63
2022/09/11 10:15:48;;;;;;;12.30;8.00;;;;;;;18.33;84.57;100912.34;5058932;28;20101;-64
2022/09/11 10:18:32;;;;;;;9.70;7.85;;;;;;;18.41;84.93;100914.31;5061202;28;20051;-63
2022/09/11 10:21:11;;;;;;;10.38;7.90;;;;;;;18.46;84.58;100912.09;5064540;28;20063;-63
2022/09/11 10:23:45;;;;;;;11.48;6.90;;;;;;;18.52;84.17;100916.91;5044473;28;20045;-62
2022/09/11 10:26:18;;;;;;;10.77;7.65;;;;;;;18.54;83.43;100909.59;5062915;28;20057;-62
2022/09/11 10:28:45;;;;;;;8.73;6.95;;;;;;;18.62;83.34;100908.94;5039962;28;20551;-62
2022/09/11 10:31:15;;;;;;;10.45;7.30;;;;;;;18.77;83.24;100912.94;5064080;28;20052;-61
2022/09/11 10:33:50;;;;;;;10.90;7.25;;;;;;;18.99;83.48;100906.53;5055717;28;20045;-65
2022/09/11 10:36:22;;;;;;;12.10;7.50;;;;;;;19.14;80.69;100918.50;5064854;28;20052;-65
2022/09/11 10:38:50;;;;;;;9.77;6.90;;;;;;;19.26;80.63;100910.34;5046764;28;20055;-64
2022/09/11 10:41:33;;;;;;;9.95;7.15;;;;;;;19.37;80.90;100915.56;5042132;28;20060;-64
2022/09/11 10:44:10;;;;;;;11.38;8.05;;;;;;;19.35;78.69;100917.53;5051147;28;20052;-62
2022/09/11 10:46:38;;;;;;;9.20;7.03;;;;;;;19.26;79.72;100911.19;5048768;28;20403;-63
2022/09/11 10:49:18;;;;;;;13.38;7.97;;;;;;;19.30;79.24;100919.78;5065059;28;20056;-60
2022/09/11 10:51:58;;;;;;;9.40;7.20;;;;;;;19.34;79.06;100918.50;5069597;28;20048;-62
2022/09/11 10:54:52;;;;;;;9.60;6.78;;;;;;;19.38;75.30;100922.59;5024720;28;1062896;-64
2022/09/11 10:57:20;;;;;;;8.73;6.35;;;;;;;19.27;76.21;100923.53;5053407;28;20056;-64
2022/09/11 11:00:15;;;;;;;7.20;5.80;;;;;;;19.29;77.53;100923.44;5073714;28;20056;-62
2022/09/11 11:02:44;;;;;;;7.53;6.43;;;;;;;19.31;77.63;100926.78;5072741;28;20052;-63
2022/09/11 11:05:23;;;;;;;7.75;5.90;;;;;;;19.27;78.07;100930.72;5051257;28;20032;-63
2022/09/11 11:08:21;;;;;;;7.85;5.65;;;;;;;19.21;77.84;100930.28;5046533;28;20049;-61
2022/09/11 11:11:13;;;;;;;7.25;5.78;;;;;;;19.19;78.10;100926.09;5058096;28;20041;-63
2022/09/11 11:13:48;;;;;;;8.88;7.10;;;;;;;19.21;78.74;100926.78;5066541;28;20147;-64
2022/09/11 11:16:50;;;;;;;12.40;7.63;;;;;;;19.14;79.13;100931.84;5059830;28;20163;-63
2022/09/11 11:19:36;;;;;;;10.80;7.05;;;;;;;19.09;79.42;100933.22;5051531;28;20063;-61
2022/09/11 11:22:33;;;;;;;11.40;6.63;;;;;;;19.04;79.88;100924.78;5060387;28;20040;-63
2022/09/11 11:25:36;;;;;;;9.77;6.75;;;;;;;19.08;80.75;100926.19;5051160;28;20040;-63
2022/09/11 11:28:34;;;;;;;9.38;7.10;;;;;;;19.27;81.90;100920.03;5049654;28;20063;-63
2022/09/11 11:31:10;;;;;;;11.02;6.53;;;;;;;19.62;82.26;100923.03;5073125;28;20052;-63
2022/09/11 11:33:55;;;;;;;6.43;5.53;;;;;;;19.96;81.16;100927.91;5073567;28;20068;-63
2022/09/11 11:36:37;;;;;;;11.10;6.72;;;;;;;20.23;75.94;100929.81;5051314;28;20039;-65
2022/09/11 11:39:24;;;;;;;7.28;6.10;;;;;;;20.37;77.11;100932.03;5052075;28;20147;-62